Time;durP1;ratioP1;P1;durP2;ratioP2;P2;SDS_P1;SDS_P2;PMS_P1;PMS_P2;Temp;Humidity;BMP_temperature;BMP_pressure;BME280_temperature;BME280_humidity;BME280_pressure;Samples;Min_cycle;Max_cycle;Signal;HPM_P1;HPM_P2
2021/05/08 00:00:00;;;;;;;1999.90;999.90;;;13.00;99.90;;;;;;5055067;28;20188;-45
2021/05/08 00:02:27;;;;;;;1999.90;999.90;;;13.00;99.90;;;;;;5054946;28;20594;-45
2021/05/08 00:04:54;;;;;;;1999.90;999.90;;;13.00;99.90;;;;;;5053686;28;20180;-45
2021/05/08 00:07:21;;;;;;;1999.90;999.90;;;12.90;99.90;;;;;;5054888;28;20619;-45
2021/05/08 00:09:48;;;;;;;1999.90;999.90;;;12.90;99.90;;;;;;5055076;28;20580;-45
2021/05/08 00:12:15;;;;;;;1999.90;999.90;;;12.90;99.90;;;;;;5055015;28;20172;-45
2021/05/08 00:14:42;;;;;;;1999.90;999.90;;;12.80;99.90;;;;;;5054948;28;20256;-44
2021/05/08 00:17:10;;;;;;;1999.90;999.90;;;12.90;99.90;;;;;;5055064;28;20169;-44
2021/05/08 00:19:37;;;;;;;1999.90;999.90;;;12.90;99.90;;;;;;5055074;28;20165;-44
2021/05/08 00:22:04;;;;;;;1999.90;999.90;;;12.90;99.90;;;;;;5055017;28;20170;-44
2021/05/08 00:24:31;;;;;;;1999.90;999.90;;;12.80;99.90;;;;;;5054985;28;20627;-44
2021/05/08 00:26:58;;;;;;;1999.90;999.90;;;12.70;99.90;;;;;;5054245;28;20165;-45
2021/05/08 00:29:25;;;;;;;1999.90;999.90;;;12.60;99.90;;;;;;5054938;28;20157;-45
2021/05/08 00:31:52;;;;;;;1999.90;999.90;;;12.60;99.90;;;;;;5054810;28;20172;-44
2021/05/08 00:34:19;;;;;;;1999.90;999.90;;;12.60;99.90;;;;;;5055557;28;20595;-44
2021/05/08 00:36:45;;;;;;;1999.90;999.90;;;12.50;99.90;;;;;;5054674;28;20166;-44
2021/05/08 00:39:12;;;;;;;1999.90;999.90;;;12.50;99.90;;;;;;5054601;28;20208;-45
2021/05/08 00:41:39;;;;;;;1999.90;999.90;;;12.50;99.90;;;;;;5054687;28;20536;-44
2021/05/08 00:44:06;;;;;;;1999.90;999.90;;;12.50;99.90;;;;;;5054856;28;20572;-44
2021/05/08 00:46:33;;;;;;;1999.90;999.90;;;12.40;99.90;;;;;;5054558;28;20191;-51
2021/05/08 00:49:01;;;;;;;1999.90;999.90;;;12.60;99.90;;;;;;5054443;28;20176;-48
2021/05/08 00:51:28;;;;;;;1999.90;999.90;;;12.60;99.90;;;;;;5054704;28;20510;-45
2021/05/08 00:53:55;;;;;;;1999.90;999.90;;;12.50;99.90;;;;;;5054424;28;20173;-48
2021/05/08 00:56:21;;;;;;;1999.90;999.90;;;12.50;99.90;;;;;;5054532;28;20272;-46
2021/05/08 00:58:48;;;;;;;1999.90;999.90;;;12.60;99.90;;;;;;5054233;28;20295;-48
2021/05/08 01:01:15;;;;;;;1999.90;999.90;;;12.60;99.90;;;;;;5054224;28;20252;-49
2021/05/08 01:03:46;;;;;;;1999.90;999.90;;;12.60;99.90;;;;;;5054277;28;20180;-49
2021/05/08 01:06:13;;;;;;;1999.90;999.90;;;12.50;99.90;;;;;;5054159;28;20180;-47
2021/05/08 01:08:41;;;;;;;1999.90;999.90;;;12.50;99.90;;;;;;5054184;28;20170;-47
2021/05/08 01:11:08;;;;;;;1999.90;999.90;;;12.50;99.90;;;;;;5054086;28;20620;-47
2021/05/08 01:13:35;;;;;;;1999.90;999.90;;;12.50;99.90;;;;;;5054051;28;20201;-51
2021/05/08 01:16:02;;;;;;;1999.90;999.90;;;12.50;99.90;;;;;;5054034;28;20161;-51
2021/05/08 01:18:31;;;;;;;1999.90;999.90;;;12.50;99.90;;;;;;5053846;28;20201;-46
2021/05/08 01:20:59;;;;;;;1999.90;999.90;;;12.50;99.90;;;;;;5053820;28;20200;-45
2021/05/08 01:23:26;;;;;;;1999.90;999.90;;;12.50;99.90;;;;;;5053811;28;20169;-47
2021/05/08 01:25:53;;;;;;;1999.90;999.90;;;12.50;99.90;;;;;;5053926;28;20537;-46
2021/05/08 01:28:20;;;;;;;1999.90;999.90;;;12.50;99.90;;;;;;5053591;28;20262;-46
2021/05/08 01:30:47;;;;;;;1999.90;999.90;;;12.60;99.90;;;;;;5053689;28;20219;-46
2021/05/08 01:33:14;;;;;;;1999.90;999.90;;;12.70;99.90;;;;;;5053664;28;20691;-46
2021/05/08 01:35:41;;;;;;;1999.90;999.90;;;12.70;99.90;;;;;;5053693;28;20196;-46
2021/05/08 01:38:08;;;;;;;1999.90;999.90;;;12.60;99.90;;;;;;5053174;28;20556;-45
2021/05/08 01:40:40;;;;;;;1999.90;999.90;;;12.60;99.90;;;;;;5053161;28;20189;-46
2021/05/08 01:43:08;;;;;;;1999.90;999.90;;;12.50;99.90;;;;;;5053798;28;20165;-45
2021/05/08 01:45:35;;;;;;;1999.90;999.90;;;12.40;99.90;;;;;;5053487;28;20188;-46
2021/05/08 01:48:05;;;;;;;1999.90;999.90;;;12.30;99.90;;;;;;5053404;28;20198;-46
2021/05/08 01:50:32;;;;;;;1999.90;999.90;;;12.30;99.90;;;;;;5053456;28;20150;-46
2021/05/08 01:52:59;;;;;;;1999.90;999.90;;;12.20;99.90;;;;;;5053305;28;20169;-46
2021/05/08 01:55:28;;;;;;;1999.90;999.90;;;12.20;99.90;;;;;;5053404;28;20161;-45
2021/05/08 01:57:58;;;;;;;1999.90;999.90;;;12.10;99.90;;;;;;5053253;28;20674;-45
2021/05/08 02:00:36;;;;;;;1999.90;999.90;;;12.10;99.90;;;;;;5053333;28;20659;-46
2021/05/08 02:03:04;;;;;;;1999.90;999.90;;;12.20;99.90;;;;;;5053173;28;20163;-46
2021/05/08 02:05:34;;;;;;;1999.90;999.90;;;12.10;99.90;;;;;;5053124;28;20180;-46
2021/05/08 02:08:06;;;;;;;1999.90;999.90;;;12.10;99.90;;;;;;5053136;28;20632;-45
2021/05/08 02:10:39;;;;;;;1999.90;999.90;;;12.00;99.90;;;;;;5053104;28;20157;-45
2021/05/08 02:13:08;;;;;;;1999.90;999.90;;;12.00;99.90;;;;;;5053049;28;20164;-46
2021/05/08 02:15:36;;;;;;;1999.90;999.90;;;11.90;99.90;;;;;;5052936;28;20173;-47
2021/05/08 02:18:04;;;;;;;1999.90;999.90;;;11.80;99.90;;;;;;5052888;28;20192;-46
2021/05/08 02:20:35;;;;;;;1999.90;999.90;;;11.70;99.90;;;;;;5051834;28;20571;-47
2021/05/08 02:23:04;;;;;;;1999.90;999.90;;;11.70;99.90;;;;;;5052930;28;20620;-46
2021/05/08 02:25:31;;;;;;;1999.90;999.90;;;11.70;99.90;;;;;;5052918;28;20177;-48
2021/05/08 02:27:59;;;;;;;1999.90;999.90;;;11.70;99.90;;;;;;5052910;28;20221;-46
2021/05/08 02:30:27;;;;;;;1999.90;999.90;;;11.70;99.90;;;;;;5052874;28;20165;-46
2021/05/08 02:32:55;;;;;;;1999.90;999.90;;;11.60;99.90;;;;;;5052827;28;20193;-48
2021/05/08 02:35:23;;;;;;;1999.90;999.90;;;11.60;99.90;;;;;;5052821;28;20172;-46
2021/05/08 02:37:51;;;;;;;1999.90;999.90;;;11.70;99.90;;;;;;5052593;28;20239;-47
2021/05/08 02:40:29;;;;;;;1999.90;999.90;;;11.70;99.90;;;;;;5052598;28;20177;-48
2021/05/08 02:42:57;;;;;;;1999.90;999.90;;;11.70;99.90;;;;;;5052745;28;20168;-46
2021/05/08 02:45:24;;;;;;;1999.90;999.90;;;11.60;99.90;;;;;;5052684;28;20177;-49
2021/05/08 02:47:52;;;;;;;1999.90;999.90;;;11.70;99.90;;;;;;5052714;28;20173;-47
2021/05/08 02:50:20;;;;;;;1999.90;999.90;;;11.60;99.90;;;;;;5053817;28;20223;-48
2021/05/08 02:52:47;;;;;;;1999.90;999.90;;;11.60;99.90;;;;;;5056722;28;20242;-47
2021/05/08 02:55:17;;;;;;;1999.90;999.90;;;11.60;99.90;;;;;;5056548;28;20176;-47
2021/05/08 02:57:44;;;;;;;1999.90;999.90;;;11.60;99.90;;;;;;5056565;28;20742;-47
2021/05/08 03:00:14;;;;;;;1999.90;999.90;;;11.60;99.90;;;;;;5056539;28;20268;-47
2021/05/08 03:02:41;;;;;;;1999.90;999.90;;;11.60;99.90;;;;;;5056520;28;20178;-45
2021/05/08 03:05:09;;;;;;;1999.90;999.90;;;11.60;99.90;;;;;;5056441;28;20173;-45
2021/05/08 03:07:36;;;;;;;1999.90;999.90;;;11.50;99.90;;;;;;5056519;28;20549;-45
2021/05/08 03:10:05;;;;;;;1999.90;999.90;;;11.50;99.90;;;;;;5056548;28;20173;-45
2021/05/08 03:12:32;;;;;;;1999.90;999.90;;;11.50;99.90;;;;;;5056406;28;20710;-45
2021/05/08 03:14:58;;;;;;;1999.90;999.90;;;11.60;99.90;;;;;;5056272;28;20652;-46
2021/05/08 03:17:25;;;;;;;1999.90;999.90;;;11.50;99.90;;;;;;5056111;28;20200;-45
2021/05/08 03:19:52;;;;;;;1999.90;999.90;;;11.50;99.90;;;;;;5056209;28;20224;-45
2021/05/08 03:22:19;;;;;;;1999.90;999.90;;;11.40;99.90;;;;;;5056168;28;20174;-45
2021/05/08 03:24:46;;;;;;;1999.90;999.90;;;11.40;99.90;;;;;;5056156;28;20200;-45
2021/05/08 03:27:13;;;;;;;1999.90;999.90;;;11.40;99.90;;;;;;5055895;28;20258;-45
2021/05/08 03:29:39;;;;;;;1999.90;999.90;;;11.50;99.90;;;;;;5054799;28;20231;-47
2021/05/08 03:32:06;;;;;;;1999.90;999.90;;;11.50;99.90;;;;;;5055998;28;20173;-45
2021/05/08 03:34:33;;;;;;;1999.90;999.90;;;11.40;99.90;;;;;;5056048;28;20169;-45
2021/05/08 03:37:00;;;;;;;1999.90;999.90;;;11.40;99.90;;;;;;5055902;28;20173;-44
2021/05/08 03:39:27;;;;;;;1999.90;999.90;;;11.40;99.90;;;;;;5055794;28;20227;-45
2021/05/08 03:41:54;;;;;;;1999.90;999.90;;;11.50;99.90;;;;;;5055825;28;20252;-45
2021/05/08 03:44:20;;;;;;;1999.90;999.90;;;11.50;99.90;;;;;;5055774;28;20184;-46
2021/05/08 03:46:47;;;;;;;1999.90;999.90;;;11.50;99.90;;;;;;5055598;28;20503;-46
2021/05/08 03:49:14;;;;;;;1999.90;999.90;;;11.40;99.90;;;;;;5055601;28;20177;-45
2021/05/08 03:51:41;;;;;;;1999.90;999.90;;;11.40;99.90;;;;;;5055603;28;20674;-46
2021/05/08 03:54:08;;;;;;;1999.90;999.90;;;11.40;99.90;;;;;;5055668;28;20567;-46
2021/05/08 03:56:36;;;;;;;1999.90;999.90;;;11.30;99.90;;;;;;5055626;28;20166;-47
2021/05/08 03:59:03;;;;;;;1999.90;999.90;;;11.20;99.90;;;;;;5055423;28;20201;-46
2021/05/08 04:01:30;;;;;;;1999.90;999.90;;;11.10;99.90;;;;;;5054707;28;20176;-46
2021/05/08 04:03:56;;;;;;;1999.90;999.90;;;11.00;99.90;;;;;;5053960;28;20540;-46
2021/05/08 04:06:23;;;;;;;1999.90;999.90;;;11.00;99.90;;;;;;5055290;28;20196;-47
2021/05/08 04:08:50;;;;;;;1999.90;999.90;;;11.00;99.90;;;;;;5055285;28;20207;-47
2021/05/08 04:11:17;;;;;;;1999.90;999.90;;;10.90;99.90;;;;;;5055212;28;20238;-46
2021/05/08 04:13:44;;;;;;;1999.90;999.90;;;10.90;99.90;;;;;;5055200;28;20207;-46
2021/05/08 04:16:11;;;;;;;1999.90;999.90;;;10.90;99.90;;;;;;5055108;28;20601;-48
2021/05/08 04:18:38;;;;;;;1999.90;999.90;;;11.00;99.90;;;;;;5055107;28;20208;-47
2021/05/08 04:21:05;;;;;;;1999.90;999.90;;;11.00;99.90;;;;;;5055186;28;20177;-49
2021/05/08 04:23:32;;;;;;;1999.90;999.90;;;11.00;99.90;;;;;;5054923;28;20169;-48
2021/05/08 04:25:59;;;;;;;1999.90;999.90;;;11.00;99.90;;;;;;5054928;28;20636;-49
2021/05/08 04:28:26;;;;;;;1999.90;999.90;;;11.00;99.90;;;;;;5054744;28;20232;-50
2021/05/08 04:30:52;;;;;;;1999.90;999.90;;;11.00;99.90;;;;;;5054942;28;20215;-48
2021/05/08 04:33:20;;;;;;;1999.90;999.90;;;10.80;99.90;;;;;;5054839;28;20203;-49
2021/05/08 04:35:47;;;;;;;1999.90;999.90;;;10.90;99.90;;;;;;5054677;28;20636;-48
2021/05/08 04:38:14;;;;;;;1999.90;999.90;;;10.90;99.90;;;;;;5054681;28;20208;-49
2021/05/08 04:40:42;;;;;;;1999.90;999.90;;;10.90;99.90;;;;;;5054755;28;20230;-49
2021/05/08 04:43:09;;;;;;;1999.90;999.90;;;10.90;99.90;;;;;;5054756;28;20174;-48
2021/05/08 04:45:36;;;;;;;1999.90;999.90;;;10.90;99.90;;;;;;5054527;28;20170;-49
2021/05/08 04:48:03;;;;;;;1999.90;999.90;;;10.90;99.90;;;;;;5054568;28;20280;-48
2021/05/08 04:50:30;;;;;;;1999.90;999.90;;;10.90;99.90;;;;;;5054605;28;20173;-48
2021/05/08 04:52:57;;;;;;;1999.90;999.90;;;10.80;99.90;;;;;;5054288;28;20189;-48
2021/05/08 04:55:24;;;;;;;1999.90;999.90;;;10.80;99.90;;;;;;5054398;28;20180;-46
2021/05/08 04:57:50;;;;;;;1999.90;999.90;;;10.80;99.90;;;;;;5054249;28;20200;-47
2021/05/08 05:00:19;;;;;;;1999.90;999.90;;;10.90;99.90;;;;;;5054190;28;20176;-47
2021/05/08 05:02:47;;;;;;;1999.90;999.90;;;10.80;99.90;;;;;;5054168;28;20196;-47
2021/05/08 05:05:15;;;;;;;1999.90;999.90;;;10.70;99.90;;;;;;5054070;28;20539;-48
2021/05/08 05:07:45;;;;;;;1999.90;999.90;;;10.70;99.90;;;;;;5054367;28;20692;-46
2021/05/08 05:10:12;;;;;;;1999.90;999.90;;;10.70;99.90;;;;;;5054202;28;20635;-46
2021/05/08 05:12:39;;;;;;;1999.90;999.90;;;10.70;99.90;;;;;;5054516;28;20173;-46
2021/05/08 05:15:07;;;;;;;1999.90;999.90;;;10.60;99.90;;;;;;5054156;28;20623;-47
2021/05/08 05:17:35;;;;;;;1999.90;999.90;;;10.60;99.90;;;;;;5053864;28;20177;-46
2021/05/08 05:20:05;;;;;;;1999.90;999.90;;;10.50;99.90;;;;;;5054006;28;20530;-46
2021/05/08 05:22:32;;;;;;;1999.90;999.90;;;10.50;99.90;;;;;;5053867;28;20712;-46
2021/05/08 05:24:59;;;;;;;1999.90;999.90;;;10.50;99.90;;;;;;5053865;28;20173;-47
2021/05/08 05:27:26;;;;;;;1999.90;999.90;;;10.40;99.90;;;;;;5053599;28;20224;-46
2021/05/08 05:29:53;;;;;;;1999.90;999.90;;;10.50;99.90;;;;;;5053817;28;20157;-46
2021/05/08 05:32:19;;;;;;;1999.90;999.90;;;10.50;99.90;;;;;;5053744;28;20628;-46
2021/05/08 05:34:46;;;;;;;1999.90;999.90;;;10.50;99.90;;;;;;5053664;28;20165;-46
2021/05/08 05:37:13;;;;;;;1999.90;999.90;;;10.50;99.90;;;;;;5053728;28;20215;-46
2021/05/08 05:39:40;;;;;;;1999.90;999.90;;;10.50;99.90;;;;;;5053513;28;20774;-46
2021/05/08 05:42:07;;;;;;;1999.90;999.90;;;10.50;99.90;;;;;;5053537;28;20721;-49
2021/05/08 05:44:34;;;;;;;1999.90;999.90;;;10.50;99.90;;;;;;5053523;28;20197;-46
2021/05/08 05:47:01;;;;;;;1999.90;999.90;;;10.60;99.90;;;;;;5053398;28;20161;-46
2021/05/08 05:49:27;;;;;;;1999.90;999.90;;;10.60;99.90;;;;;;5053398;28;20172;-46
2021/05/08 05:51:54;;;;;;;1999.90;999.90;;;10.70;99.90;;;;;;5053309;28;20170;-46
2021/05/08 05:54:21;;;;;;;1999.90;999.90;;;10.70;99.90;;;;;;5053342;28;20200;-46
2021/05/08 05:56:48;;;;;;;1999.90;999.90;;;10.70;99.90;;;;;;5053248;28;20594;-46
2021/05/08 05:59:15;;;;;;;1999.90;999.90;;;10.70;99.90;;;;;;5053219;28;20207;-47
2021/05/08 06:01:42;;;;;;;1999.90;999.90;;;10.70;99.90;;;;;;5053145;28;20193;-46
2021/05/08 06:04:08;;;;;;;1999.90;999.90;;;10.80;99.90;;;;;;5053057;28;20180;-48
2021/05/08 06:06:35;;;;;;;1999.90;999.90;;;10.90;99.90;;;;;;5053100;28;20524;-49
2021/05/08 06:09:02;;;;;;;1999.90;999.90;;;11.00;99.90;;;;;;5053000;28;20218;-46
2021/05/08 06:11:29;;;;;;;1999.90;999.90;;;11.00;99.90;;;;;;5052948;28;20203;-49
2021/05/08 06:13:57;;;;;;;1999.90;999.90;;;11.00;99.90;;;;;;5053044;28;20184;-48
2021/05/08 06:16:24;;;;;;;1999.90;999.90;;;11.10;99.90;;;;;;5052871;28;20182;-48
2021/05/08 06:18:53;;;;;;;1999.90;999.90;;;11.20;99.90;;;;;;5052913;28;20201;-46
2021/05/08 06:21:20;;;;;;;1999.90;999.90;;;11.20;99.90;;;;;;5052893;28;20165;-46
2021/05/08 06:23:47;;;;;;;1999.90;999.90;;;11.30;99.90;;;;;;5053022;28;20295;-46
2021/05/08 06:26:13;;;;;;;1999.90;999.90;;;11.30;99.90;;;;;;5052433;28;20169;-48
2021/05/08 06:28:40;;;;;;;1999.90;999.90;;;11.40;99.90;;;;;;5052659;28;20216;-47
2021/05/08 06:31:07;;;;;;;1999.90;999.90;;;11.40;99.90;;;;;;5052640;28;20617;-49
2021/05/08 06:33:34;;;;;;;1999.90;999.90;;;11.40;99.90;;;;;;5052680;28;20180;-47
2021/05/08 06:36:01;;;;;;;1999.90;999.90;;;11.50;99.90;;;;;;5052788;28;20166;-48
2021/05/08 06:38:28;;;;;;;1999.90;999.90;;;11.50;99.90;;;;;;5052677;28;20667;-46
2021/05/08 06:40:54;;;;;;;1999.90;999.90;;;11.60;99.90;;;;;;5052693;28;20172;-47
2021/05/08 06:43:21;;;;;;;1999.90;999.90;;;11.70;99.90;;;;;;5052708;28;20165;-47
2021/05/08 06:45:48;;;;;;;1999.90;999.90;;;11.80;99.90;;;;;;5052775;28;20200;-45
2021/05/08 06:48:15;;;;;;;1999.90;999.90;;;11.90;99.90;;;;;;5052645;28;20674;-45
2021/05/08 06:50:46;;;;;;;1999.90;999.90;;;12.00;99.90;;;;;;5052712;28;20157;-45
2021/05/08 06:53:13;;;;;;;1999.90;999.90;;;12.10;99.90;;;;;;5052868;28;20171;-44
2021/05/08 06:55:40;;;;;;;1999.90;999.90;;;12.10;99.90;;;;;;5052600;28;20620;-44
2021/05/08 06:58:07;;;;;;;1999.90;999.90;;;12.20;99.90;;;;;;5052480;28;20193;-44
2021/05/08 07:00:34;;;;;;;1999.90;999.90;;;12.40;99.90;;;;;;5052516;28;20644;-44
2021/05/08 07:03:01;;;;;;;1999.90;999.90;;;12.50;99.90;;;;;;5052540;28;20166;-44
2021/05/08 07:05:29;;;;;;;1999.90;999.90;;;12.70;99.90;;;;;;5052559;28;20205;-44
2021/05/08 07:08:08;;;;;;;1999.90;999.90;;;12.80;99.90;;;;;;5052491;28;20173;-44
2021/05/08 07:10:55;;;;;;;1999.90;999.90;;;13.00;99.90;;;;;;5052528;28;20176;-44
2021/05/08 07:13:22;;;;;;;1999.90;999.90;;;13.10;99.90;;;;;;5052563;28;20157;-44
2021/05/08 07:15:49;;;;;;;1999.90;999.90;;;13.20;99.90;;;;;;5052355;28;20227;-44
2021/05/08 07:18:16;;;;;;;1999.90;999.90;;;13.20;99.90;;;;;;5052271;28;20247;-47
2021/05/08 07:20:43;;;;;;;1999.90;999.90;;;13.40;99.90;;;;;;5052392;28;20170;-44
2021/05/08 07:23:10;;;;;;;1999.90;999.90;;;13.50;99.90;;;;;;5052367;28;20165;-49
2021/05/08 07:25:37;;;;;;;1999.90;999.90;;;13.60;99.90;;;;;;5052294;28;20646;-44
2021/05/08 07:28:09;;;;;;;1999.90;999.90;;;13.80;99.90;;;;;;5052093;28;20296;-50
2021/05/08 07:30:37;;;;;;;1999.90;999.90;;;13.90;99.90;;;;;;5052193;28;20177;-47
2021/05/08 07:33:04;;;;;;;1999.90;999.90;;;13.90;99.90;;;;;;5052160;28;20642;-45
2021/05/08 07:35:31;;;;;;;1999.90;999.90;;;14.00;99.90;;;;;;5050813;28;20260;-47
2021/05/08 07:37:58;;;;;;;1999.90;999.90;;;14.20;99.90;;;;;;5053543;28;20551;-45
2021/05/08 07:40:25;;;;;;;1999.90;999.90;;;14.30;99.90;;;;;;5055716;28;20173;-46
2021/05/08 07:42:52;;;;;;;1999.90;999.90;;;14.40;99.90;;;;;;5055672;28;20170;-47
2021/05/08 07:45:19;;;;;;;1999.90;999.90;;;14.50;99.90;;;;;;5055700;28;20176;-49
2021/05/08 07:47:45;;;;;;;1999.90;999.90;;;14.60;99.90;;;;;;5054593;28;20173;-46
2021/05/08 07:50:12;;;;;;;1999.90;999.90;;;14.60;99.90;;;;;;5055576;28;20177;-49
2021/05/08 07:52:39;;;;;;;1999.90;999.90;;;14.60;99.90;;;;;;5055629;28;20260;-43
2021/05/08 07:55:07;;;;;;;1999.90;999.90;;;14.70;99.90;;;;;;5055049;28;20182;-46
2021/05/08 07:57:34;;;;;;;1999.90;999.90;;;14.70;99.90;;;;;;5054760;28;20532;-45
2021/05/08 08:00:01;;;;;;;1999.90;999.90;;;14.70;99.90;;;;;;5055240;28;20278;-48
2021/05/08 08:02:28;;;;;;;1999.90;999.90;;;14.80;99.90;;;;;;5055426;28;20191;-49
2021/05/08 08:04:54;;;;;;;1999.90;999.90;;;14.90;99.90;;;;;;5055360;28;20512;-46
2021/05/08 08:07:21;;;;;;;1999.90;999.90;;;15.00;99.90;;;;;;5055379;28;20161;-45
2021/05/08 08:09:48;;;;;;;1999.90;999.90;;;15.20;99.90;;;;;;5055276;28;20172;-48
2021/05/08 08:12:15;;;;;;;1999.90;999.90;;;15.40;99.90;;;;;;5055160;28;20754;-45
2021/05/08 08:14:42;;;;;;;1999.90;999.90;;;15.50;99.90;;;;;;5055080;28;20191;-46
2021/05/08 08:17:09;;;;;;;1999.90;999.90;;;15.70;99.90;;;;;;5053745;28;20181;-45
2021/05/08 08:19:36;;;;;;;1999.90;999.90;;;15.80;99.90;;;;;;5054964;28;20200;-45
2021/05/08 08:22:03;;;;;;;1999.90;999.90;;;15.90;99.90;;;;;;5055054;28;20165;-45
2021/05/08 08:24:30;;;;;;;1999.90;999.90;;;16.00;99.90;;;;;;5054870;28;20215;-48
2021/05/08 08:26:57;;;;;;;1999.90;999.90;;;16.30;99.90;;;;;;5054863;28;20215;-46
2021/05/08 08:29:26;;;;;;;1999.90;999.90;;;16.40;99.90;;;;;;5054857;28;20514;-45
2021/05/08 08:31:53;;;;;;;1999.90;999.90;;;16.50;99.90;;;;;;5054713;28;20451;-50
2021/05/08 08:34:19;;;;;;;1999.90;999.90;;;16.60;99.90;;;;;;5054616;28;20161;-46
2021/05/08 08:36:47;;;;;;;1999.90;999.90;;;16.70;99.90;;;;;;5054522;28;20158;-46
2021/05/08 08:39:14;;;;;;;1999.90;999.90;;;16.80;99.90;;;;;;5054529;28;20246;-46
2021/05/08 08:41:42;;;;;;;1999.90;999.90;;;16.90;99.90;;;;;;5054543;28;20169;-46
2021/05/08 08:44:10;;;;;;;1999.90;999.90;;;17.10;99.90;;;;;;5054541;28;20177;-46
2021/05/08 08:46:45;;;;;;;1999.90;999.90;;;17.10;99.90;;;;;;5054516;28;20162;-46
2021/05/08 08:49:13;;;;;;;1999.90;999.90;;;17.30;99.90;;;;;;5054221;28;20161;-45
2021/05/08 08:51:43;;;;;;;1999.90;999.90;;;17.60;99.90;;;;;;5054316;28;20170;-46
2021/05/08 08:54:12;;;;;;;1999.90;999.90;;;17.70;98.90;;;;;;5054354;28;20256;-46
2021/05/08 08:56:42;;;;;;;1999.90;999.90;;;18.00;98.70;;;;;;5054193;28;20169;-46
2021/05/08 09:01:50;;;;;;;1999.90;999.90;;;18.40;97.70;;;;;;5053791;28;20207;-47
2021/05/08 09:04:18;;;;;;;1999.90;999.90;;;18.60;97.40;;;;;;5053766;28;20227;-48
2021/05/08 09:06:46;;;;;;;1999.90;999.90;;;18.70;97.10;;;;;;5053812;28;20169;-47
2021/05/08 09:09:15;;;;;;;1999.90;999.90;;;18.80;96.40;;;;;;5053812;28;20629;-49
2021/05/08 09:11:47;;;;;;;1999.90;999.90;;;19.00;96.20;;;;;;5053978;28;20165;-47
2021/05/08 09:14:21;;;;;;;1999.90;999.90;;;19.00;94.10;;;;;;5053547;28;20165;-47
2021/05/08 09:17:11;;;;;;;1999.90;999.90;;;18.80;94.60;;;;;;5053359;28;20235;-47
2021/05/08 09:20:01;;;;;;;1999.90;999.90;;;19.00;94.90;;;;;;5053197;28;20197;-50
2021/05/08 09:22:32;;;;;;;1999.90;999.90;;;19.20;93.90;;;;;;5053066;28;20182;-48
2021/05/08 09:25:06;;;;;;;1999.90;999.90;;;19.30;93.50;;;;;;5053128;28;20168;-50
2021/05/08 09:27:33;;;;;;;1999.90;999.90;;;19.40;93.90;;;;;;5053159;28;20240;-47
2021/05/08 09:30:13;;;;;;;1999.90;999.90;;;19.70;93.40;;;;;;5053392;28;20206;-49
2021/05/08 09:32:43;;;;;;;1999.90;999.90;;;19.90;92.70;;;;;;5053685;28;20604;-48
2021/05/08 09:35:20;;;;;;;1999.90;999.90;;;20.00;92.90;;;;;;5053071;28;20176;-49
2021/05/08 09:37:49;;;;;;;1999.90;999.90;;;20.20;91.60;;;;;;5051546;28;20161;-49
2021/05/08 09:40:27;;;;;;;1999.90;999.90;;;20.20;92.80;;;;;;5053588;28;20169;-48
2021/05/08 09:42:56;;;;;;;1999.90;999.90;;;20.30;92.30;;;;;;5053181;28;20196;-52
2021/05/08 09:45:26;;;;;;;1999.90;999.90;;;20.50;90.80;;;;;;5053044;28;20169;-48
2021/05/08 09:47:54;;;;;;;1999.90;999.90;;;20.50;90.40;;;;;;5035843;28;20169;-50
2021/05/08 09:50:25;;;;;;;1999.90;999.90;;;20.60;90.50;;;;;;5053103;28;20257;-52
2021/05/08 09:52:55;;;;;;;1999.90;999.90;;;20.70;90.00;;;;;;5053209;28;20166;-48
2021/05/08 09:55:25;;;;;;;1999.90;999.90;;;20.40;90.20;;;;;;5053129;28;20235;-49
2021/05/08 09:58:01;;;;;;;1999.90;999.90;;;20.40;90.30;;;;;;5053271;28;20235;-53
2021/05/08 10:00:41;;;;;;;1999.90;999.90;;;20.70;89.20;;;;;;5052527;28;20248;-50
2021/05/08 10:03:15;;;;;;;1999.90;999.90;;;20.80;88.30;;;;;;5053050;28;20218;-47
2021/05/08 10:06:07;;;;;;;1999.90;999.90;;;21.00;86.30;;;;;;5053188;28;20173;-46
2021/05/08 10:08:34;;;;;;;1999.90;999.90;;;21.10;84.20;;;;;;5052783;28;20176;-50
2021/05/08 10:11:02;;;;;;;1999.90;999.90;;;21.20;83.70;;;;;;5053002;28;20529;-49
2021/05/08 10:13:32;;;;;;;1999.90;999.90;;;21.30;84.20;;;;;;5052920;28;20178;-51
2021/05/08 10:16:00;;;;;;;1999.90;999.90;;;20.80;85.10;;;;;;5052441;28;20547;-52
2021/05/08 10:18:29;;;;;;;1999.90;999.90;;;21.00;83.20;;;;;;5052476;28;20239;-48
2021/05/08 10:20:58;;;;;;;1999.90;999.90;;;21.20;82.10;;;;;;5052853;28;20695;-50
2021/05/08 10:23:30;;;;;;;1999.90;999.90;;;20.90;83.30;;;;;;5052851;28;20211;-52
2021/05/08 10:26:02;;;;;;;1999.90;999.90;;;21.00;83.60;;;;;;5052870;28;20204;-49
2021/05/08 10:28:29;;;;;;;1999.90;999.90;;;21.30;82.50;;;;;;5052489;28;20232;-48
2021/05/08 10:30:56;;;;;;;1999.90;999.90;;;21.60;81.00;;;;;;5052715;28;20686;-48
2021/05/08 10:33:25;;;;;;;1999.90;999.90;;;21.80;79.90;;;;;;5052252;28;20613;-49
2021/05/08 10:35:52;;;;;;;1999.90;999.90;;;22.10;78.80;;;;;;5052408;28;20165;-47
2021/05/08 10:40:50;;;;;;;1999.90;999.90;;;22.60;77.10;;;;;;5052541;28;20196;-47
2021/05/08 10:43:58;;;;;;;1999.90;999.90;;;22.20;81.50;;;;;;5052337;28;20192;-46
2021/05/08 10:46:28;;;;;;;1999.90;999.90;;;22.10;80.00;;;;;;5032100;28;20221;-47
2021/05/08 10:49:08;;;;;;;1999.90;999.90;;;21.90;80.80;;;;;;5052303;28;20173;-47
2021/05/08 10:51:56;;;;;;;1999.90;999.90;;;21.20;83.80;;;;;;5052481;28;20172;-47
2021/05/08 10:54:43;;;;;;;1999.90;999.90;;;21.00;85.90;;;;;;5052105;28;20177;-46
2021/05/08 10:57:32;;;;;;;1999.90;999.90;;;21.00;85.40;;;;;;5052325;28;20503;-48
2021/05/08 11:00:08;;;;;;;1999.90;999.90;;;21.00;84.80;;;;;;5051805;28;20177;-53
2021/05/08 11:02:43;;;;;;;1999.90;999.90;;;21.10;85.10;;;;;;5051762;28;20238;-47
2021/05/08 11:05:26;;;;;;;1999.90;999.90;;;21.20;84.50;;;;;;5052268;28;20301;-48
2021/05/08 11:07:54;;;;;;;1999.90;999.90;;;21.30;82.40;;;;;;5052264;28;20248;-46
2021/05/08 11:10:36;;;;;;;1999.90;999.90;;;21.30;81.80;;;;;;5052257;28;20176;-47
2021/05/08 11:13:10;;;;;;;1999.90;999.90;;;21.40;82.50;;;;;;5056149;28;20188;-47
2021/05/08 11:16:11;;;;;;;1999.90;999.90;;;21.50;83.00;;;;;;5056207;28;20196;-46
2021/05/08 11:18:44;;;;;;;1999.90;999.90;;;21.60;82.10;;;;;;5034135;28;20212;-46
2021/05/08 11:21:13;;;;;;;1999.90;999.90;;;21.60;81.20;;;;;;5056144;28;20172;-47
2021/05/08 11:23:51;;;;;;;1999.90;999.90;;;21.70;81.50;;;;;;5056134;28;20162;-47
2021/05/08 11:26:27;;;;;;;1999.90;999.90;;;21.60;83.10;;;;;;5055909;28;20194;-47
2021/05/08 11:28:58;;;;;;;1999.90;999.90;;;21.30;83.50;;;;;;5055886;28;20216;-47
2021/05/08 11:31:33;;;;;;;1999.90;999.90;;;21.10;84.60;;;;;;5055760;28;20179;-47
2021/05/08 11:34:16;;;;;;;1999.90;999.90;;;20.90;84.90;;;;;;5055851;28;20294;-46
2021/05/08 11:36:44;;;;;;;1999.90;999.90;;;20.90;84.50;;;;;;5055954;28;20157;-47
2021/05/08 11:39:13;;;;;;;1999.90;999.90;;;21.00;83.50;;;;;;5055580;28;20225;-47
2021/05/08 11:41:41;;;;;;;1999.90;999.90;;;21.10;82.40;;;;;;5055752;28;20161;-47
2021/05/08 11:44:08;;;;;;;1999.90;999.90;;;21.10;83.70;;;;;;5055714;28;20574;-47
2021/05/08 11:46:35;;;;;;;1999.90;999.90;;;21.10;84.80;;;;;;5055657;28;20170;-48
2021/05/08 11:49:03;;;;;;;1999.90;999.90;;;21.00;84.50;;;;;;5055676;28;20667;-47
2021/05/08 11:51:30;;;;;;;1999.90;999.90;;;20.90;83.60;;;;;;5055638;28;20172;-46
2021/05/08 11:54:11;;;;;;;1999.90;999.90;;;20.90;84.80;;;;;;5055490;28;20264;-50
2021/05/08 11:56:38;;;;;;;1999.90;999.90;;;20.70;86.20;;;;;;5055482;28;20169;-46
2021/05/08 11:59:07;;;;;;;1999.90;999.90;;;21.10;82.50;;;;;;5055376;28;20204;-46
2021/05/08 12:01:34;;;;;;;1999.90;999.90;;;21.40;80.90;;;;;;5055376;28;20248;-46
2021/05/08 12:04:05;;;;;;;1999.90;999.90;;;21.70;81.00;;;;;;5055322;28;20199;-46
2021/05/08 12:06:32;;;;;;;1999.90;999.90;;;21.80;79.10;;;;;;5055416;28;20256;-47
2021/05/08 12:09:11;;;;;;;1999.90;999.90;;;21.70;80.00;;;;;;5055234;28;20183;-47
2021/05/08 12:11:38;;;;;;;1999.90;999.90;;;21.70;78.50;;;;;;5055307;28;20162;-47